Date,TemperatureHighF,TemperatureAvgF,TemperatureLowF,DewpointHighF,DewpointAvgF,DewpointLowF,HumidityHigh,HumidityAvg,HumidityLow,PressureMaxIn,PressureMinIn,WindSpeedMaxMPH,WindSpeedAvgMPH,GustSpeedMaxMPH,PrecipitationSumIn
2013-3-1,44,41,34,36,31,26,82,67,56,30.43,30.38,14,3,14,0.00
2013-3-2,46,39,33,37,31,26,91,73,61,30.39,30.21,12,1,12,0.00
2013-3-3,47,40,33,35,33,30,92,76,60,30.21,30.03,16,3,16,0.00
2013-3-4,48,40,35,32,31,29,88,71,52,30.03,29.69,21,4,21,0.00
2013-3-5,50,44,39,39,37,34,85,76,66,29.54,29.52,10,2,10,0.00
2013-3-6,46,41,36,38,36,34,91,85,73,29.54,29.48,17,6,18,0.00
2013-3-7,47,43,40,43,39,37,93,87,75,29.48,29.32,19,6,19,0.25
2013-3-8,42,41,40,39,38,38,91,90,87,29.40,29.33,19,7,19,0.00
2013-3-9,37,35,35,34,33,32,93,91,89,29.69,29.64,12,3,12,0.04
2013-3-10,38,34,27,33,25,16,93,71,45,29.86,29.68,27,7,27,0.06
2013-3-11,33,29,26,22,18,14,79,64,47,29.93,29.85,25,8,26,0.00
2013-3-12,41,31,24,26,20,16,80,65,47,29.93,29.83,14,4,16,0.00
2013-3-13,44,37,33,29,25,20,76,62,40,29.89,29.78,18,2,18,0.00
2013-3-14,42,38,31,36,31,22,91,77,64,29.94,29.70,13,4,13,0.06
2013-3-15,43,40,37,41,37,34,93,90,83,29.70,29.32,25,4,25,0.18
2013-3-16,43,39,33,39,36,31,96,89,75,29.31,29.15,10,1,10,0.52
2013-3-17,42,38,32,35,34,31,94,84,64,29.15,29.09,13,3,13,0.07
2013-3-18,32,32,32,35,35,35,0,0,100,29.18,29.12,0,0,0,0.00
2013-3-19,32,32,32,35,35,35,0,0,100,29.47,29.31,0,0,0,0.00
2013-3-20,32,32,32,35,35,35,0,0,100,29.90,29.47,0,0,0,0.00
2013-3-21,32,32,32,35,35,35,0,0,100,29.93,29.79,0,0,0,0.00
2013-3-22,32,32,32,35,35,35,0,0,100,29.79,29.68,0,0,0,0.00
2013-3-23,32,32,32,35,35,35,0,0,100,29.91,29.73,0,0,0,0.00
2013-3-24,32,32,32,35,35,35,0,0,100,30.01,29.91,0,0,0,0.00
2013-3-25,32,32,32,35,35,35,0,0,100,30.01,29.98,0,0,0,0.00
2013-3-26,32,32,32,35,35,35,0,0,100,30.00,29.99,0,0,0,0.00
2013-3-27,32,32,32,35,35,35,0,0,100,29.92,29.86,0,0,0,0.00
2013-3-28,32,32,32,35,35,35,0,0,100,29.93,29.88,0,0,0,0.00
2013-3-29,32,32,32,35,35,35,0,0,100,29.89,29.76,0,0,0,0.00
2013-3-30,32,32,32,35,35,35,0,0,100,29.80,29.79,0,0,0,0.00